sensor_id;sensor_type;location;lat;lon;timestamp;P1;durP1;ratioP1;P2;durP2;ratioP2
6852;SDS011;3465;42.144;24.722;2024-01-11T00:01:02;43.33;;;23.95;;
6852;SDS011;3465;42.144;24.722;2024-01-11T00:03:27;35.47;;;20.95;;
6852;SDS011;3465;42.144;24.722;2024-01-11T00:05:53;40.88;;;21.00;;
6852;SDS011;3465;42.144;24.722;2024-01-11T00:08:18;44.35;;;24.98;;
6852;SDS011;3465;42.144;24.722;2024-01-11T00:10:44;41.20;;;23.35;;
6852;SDS011;3465;42.144;24.722;2024-01-11T00:13:09;39.25;;;21.02;;
6852;SDS011;3465;42.144;24.722;2024-01-11T00:15:35;41.60;;;19.55;;
6852;SDS011;3465;42.144;24.722;2024-01-11T00:18:00;44.63;;;23.15;;
6852;SDS011;3465;42.144;24.722;2024-01-11T00:20:26;39.38;;;22.10;;
6852;SDS011;3465;42.144;24.722;2024-01-11T00:22:51;46.35;;;20.90;;
6852;SDS011;3465;42.144;24.722;2024-01-11T00:25:17;45.90;;;23.25;;
6852;SDS011;3465;42.144;24.722;2024-01-11T00:27:42;32.63;;;18.10;;
6852;SDS011;3465;42.144;24.722;2024-01-11T00:30:08;38.28;;;17.98;;
6852;SDS011;3465;42.144;24.722;2024-01-11T00:32:33;40.28;;;18.52;;
6852;SDS011;3465;42.144;24.722;2024-01-11T00:34:59;34.13;;;17.50;;
6852;SDS011;3465;42.144;24.722;2024-01-11T00:37:24;35.97;;;18.48;;
6852;SDS011;3465;42.144;24.722;2024-01-11T00:39:50;34.83;;;19.10;;
6852;SDS011;3465;42.144;24.722;2024-01-11T00:42:15;33.88;;;17.15;;
6852;SDS011;3465;42.144;24.722;2024-01-11T00:44:41;33.97;;;17.65;;
6852;SDS011;3465;42.144;24.722;2024-01-11T00:47:06;32.08;;;18.17;;
6852;SDS011;3465;42.144;24.722;2024-01-11T00:49:32;40.90;;;19.35;;
6852;SDS011;3465;42.144;24.722;2024-01-11T00:51:57;36.40;;;20.63;;
6852;SDS011;3465;42.144;24.722;2024-01-11T00:54:23;36.58;;;18.70;;
6852;SDS011;3465;42.144;24.722;2024-01-11T00:56:49;42.42;;;20.20;;
6852;SDS011;3465;42.144;24.722;2024-01-11T00:59:15;31.42;;;18.02;;
6852;SDS011;3465;42.144;24.722;2024-01-11T01:01:46;33.85;;;19.70;;
6852;SDS011;3465;42.144;24.722;2024-01-11T01:04:12;36.17;;;17.65;;
6852;SDS011;3465;42.144;24.722;2024-01-11T01:06:38;32.50;;;20.60;;
6852;SDS011;3465;42.144;24.722;2024-01-11T01:09:03;37.08;;;20.80;;
6852;SDS011;3465;42.144;24.722;2024-01-11T01:11:29;38.17;;;18.92;;
6852;SDS011;3465;42.144;24.722;2024-01-11T01:13:55;33.25;;;19.42;;
6852;SDS011;3465;42.144;24.722;2024-01-11T01:16:20;36.40;;;17.75;;
6852;SDS011;3465;42.144;24.722;2024-01-11T01:18:45;29.77;;;16.08;;
6852;SDS011;3465;42.144;24.722;2024-01-11T01:21:12;35.75;;;17.02;;
6852;SDS011;3465;42.144;24.722;2024-01-11T01:23:37;32.92;;;18.13;;
6852;SDS011;3465;42.144;24.722;2024-01-11T01:26:03;31.27;;;16.42;;
6852;SDS011;3465;42.144;24.722;2024-01-11T01:28:29;33.47;;;20.92;;
6852;SDS011;3465;42.144;24.722;2024-01-11T01:30:54;29.50;;;16.63;;
6852;SDS011;3465;42.144;24.722;2024-01-11T01:33:19;29.95;;;16.08;;
6852;SDS011;3465;42.144;24.722;2024-01-11T01:35:45;38.80;;;20.45;;
6852;SDS011;3465;42.144;24.722;2024-01-11T01:38:11;32.88;;;17.33;;
6852;SDS011;3465;42.144;24.722;2024-01-11T01:40:37;32.92;;;16.50;;
6852;SDS011;3465;42.144;24.722;2024-01-11T01:43:06;44.80;;;19.15;;
6852;SDS011;3465;42.144;24.722;2024-01-11T01:45:33;32.30;;;17.75;;
6852;SDS011;3465;42.144;24.722;2024-01-11T01:47:59;39.63;;;18.02;;
6852;SDS011;3465;42.144;24.722;2024-01-11T01:50:25;35.45;;;19.23;;
6852;SDS011;3465;42.144;24.722;2024-01-11T01:52:51;33.83;;;16.83;;
6852;SDS011;3465;42.144;24.722;2024-01-11T01:55:17;35.78;;;16.25;;
6852;SDS011;3465;42.144;24.722;2024-01-11T01:57:44;29.08;;;14.73;;
6852;SDS011;3465;42.144;24.722;2024-01-11T02:00:12;26.33;;;16.17;;
6852;SDS011;3465;42.144;24.722;2024-01-11T02:02:44;27.15;;;14.93;;
6852;SDS011;3465;42.144;24.722;2024-01-11T02:05:15;27.90;;;14.38;;
6852;SDS011;3465;42.144;24.722;2024-01-11T02:07:42;23.73;;;13.68;;
6852;SDS011;3465;42.144;24.722;2024-01-11T02:10:09;28.00;;;16.02;;
6852;SDS011;3465;42.144;24.722;2024-01-11T02:12:35;23.15;;;12.52;;
6852;SDS011;3465;42.144;24.722;2024-01-11T02:15:02;24.42;;;13.40;;
6852;SDS011;3465;42.144;24.722;2024-01-11T02:17:29;26.42;;;14.60;;
6852;SDS011;3465;42.144;24.722;2024-01-11T02:19:55;22.35;;;11.98;;
6852;SDS011;3465;42.144;24.722;2024-01-11T02:22:24;22.15;;;11.65;;
6852;SDS011;3465;42.144;24.722;2024-01-11T02:24:55;22.27;;;12.85;;
6852;SDS011;3465;42.144;24.722;2024-01-11T02:27:22;23.08;;;12.50;;
6852;SDS011;3465;42.144;24.722;2024-01-11T02:29:48;18.95;;;10.90;;
6852;SDS011;3465;42.144;24.722;2024-01-11T02:32:13;24.35;;;11.45;;
6852;SDS011;3465;42.144;24.722;2024-01-11T02:34:39;20.33;;;10.88;;
6852;SDS011;3465;42.144;24.722;2024-01-11T02:37:05;21.92;;;13.85;;
6852;SDS011;3465;42.144;24.722;2024-01-11T02:39:31;21.00;;;9.70;;
6852;SDS011;3465;42.144;24.722;2024-01-11T02:41:57;18.48;;;9.93;;
6852;SDS011;3465;42.144;24.722;2024-01-11T02:44:23;18.10;;;10.73;;
6852;SDS011;3465;42.144;24.722;2024-01-11T02:46:49;16.48;;;10.88;;
6852;SDS011;3465;42.144;24.722;2024-01-11T02:49:14;19.45;;;10.32;;
6852;SDS011;3465;42.144;24.722;2024-01-11T02:51:40;16.05;;;9.02;;
6852;SDS011;3465;42.144;24.722;2024-01-11T02:54:05;15.45;;;8.88;;
6852;SDS011;3465;42.144;24.722;2024-01-11T02:56:31;21.27;;;9.10;;
6852;SDS011;3465;42.144;24.722;2024-01-11T02:58:57;22.50;;;11.65;;
6852;SDS011;3465;42.144;24.722;2024-01-11T03:01:22;19.95;;;8.95;;
6852;SDS011;3465;42.144;24.722;2024-01-11T03:03:49;20.27;;;9.27;;
6852;SDS011;3465;42.144;24.722;2024-01-11T03:06:14;20.42;;;9.45;;
6852;SDS011;3465;42.144;24.722;2024-01-11T03:08:40;22.45;;;9.90;;
6852;SDS011;3465;42.144;24.722;2024-01-11T03:11:05;18.90;;;9.45;;
6852;SDS011;3465;42.144;24.722;2024-01-11T03:13:31;23.50;;;10.95;;
6852;SDS011;3465;42.144;24.722;2024-01-11T03:15:56;19.27;;;10.05;;
6852;SDS011;3465;42.144;24.722;2024-01-11T03:18:22;20.77;;;9.73;;
6852;SDS011;3465;42.144;24.722;2024-01-11T03:20:48;22.83;;;11.75;;
6852;SDS011;3465;42.144;24.722;2024-01-11T03:23:13;17.85;;;10.05;;
6852;SDS011;3465;42.144;24.722;2024-01-11T03:25:39;19.10;;;10.98;;
6852;SDS011;3465;42.144;24.722;2024-01-11T03:28:04;21.90;;;11.20;;
6852;SDS011;3465;42.144;24.722;2024-01-11T03:30:30;24.95;;;11.35;;
6852;SDS011;3465;42.144;24.722;2024-01-11T03:33:14;25.95;;;10.93;;
6852;SDS011;3465;42.144;24.722;2024-01-11T03:35:39;19.70;;;10.20;;
6852;SDS011;3465;42.144;24.722;2024-01-11T03:38:05;17.73;;;9.43;;
6852;SDS011;3465;42.144;24.722;2024-01-11T03:40:31;17.70;;;9.32;;
6852;SDS011;3465;42.144;24.722;2024-01-11T03:42:56;17.00;;;10.63;;
6852;SDS011;3465;42.144;24.722;2024-01-11T03:45:22;21.35;;;9.40;;
6852;SDS011;3465;42.144;24.722;2024-01-11T03:47:47;17.77;;;10.38;;
6852;SDS011;3465;42.144;24.722;2024-01-11T03:50:13;15.05;;;8.75;;
6852;SDS011;3465;42.144;24.722;2024-01-11T03:52:39;17.42;;;9.48;;
6852;SDS011;3465;42.144;24.722;2024-01-11T03:55:04;16.60;;;7.97;;
6852;SDS011;3465;42.144;24.722;2024-01-11T03:57:30;20.27;;;10.05;;
6852;SDS011;3465;42.144;24.722;2024-01-11T03:59:56;14.55;;;7.53;;
6852;SDS011;3465;42.144;24.722;2024-01-11T04:02:21;13.07;;;6.80;;
6852;SDS011;3465;42.144;24.722;2024-01-11T04:04:47;13.82;;;7.38;;
6852;SDS011;3465;42.144;24.722;2024-01-11T04:07:12;22.98;;;9.45;;
6852;SDS011;3465;42.144;24.722;2024-01-11T04:09:38;18.73;;;8.63;;
6852;SDS011;3465;42.144;24.722;2024-01-11T04:12:04;16.23;;;9.77;;
6852;SDS011;3465;42.144;24.722;2024-01-11T04:14:31;19.20;;;11.52;;
6852;SDS011;3465;42.144;24.722;2024-01-11T04:16:56;17.45;;;8.18;;
6852;SDS011;3465;42.144;24.722;2024-01-11T04:19:22;16.58;;;8.98;;
6852;SDS011;3465;42.144;24.722;2024-01-11T04:21:47;15.35;;;9.65;;
6852;SDS011;3465;42.144;24.722;2024-01-11T04:24:13;19.05;;;10.20;;
6852;SDS011;3465;42.144;24.722;2024-01-11T04:26:38;20.52;;;9.52;;
6852;SDS011;3465;42.144;24.722;2024-01-11T04:29:03;18.98;;;8.57;;
6852;SDS011;3465;42.144;24.722;2024-01-11T04:31:29;18.40;;;10.27;;
6852;SDS011;3465;42.144;24.722;2024-01-11T04:33:54;22.40;;;10.77;;
6852;SDS011;3465;42.144;24.722;2024-01-11T04:36:20;20.95;;;10.73;;
6852;SDS011;3465;42.144;24.722;2024-01-11T04:38:45;22.23;;;11.57;;
6852;SDS011;3465;42.144;24.722;2024-01-11T04:41:11;20.48;;;9.77;;
6852;SDS011;3465;42.144;24.722;2024-01-11T04:43:38;20.92;;;11.95;;
6852;SDS011;3465;42.144;24.722;2024-01-11T04:46:17;21.67;;;10.95;;
6852;SDS011;3465;42.144;24.722;2024-01-11T04:48:45;21.38;;;11.23;;
6852;SDS011;3465;42.144;24.722;2024-01-11T04:53:37;21.90;;;9.95;;
6852;SDS011;3465;42.144;24.722;2024-01-11T04:56:07;19.08;;;10.27;;
6852;SDS011;3465;42.144;24.722;2024-01-11T04:58:34;19.83;;;10.85;;
6852;SDS011;3465;42.144;24.722;2024-01-11T05:03:25;21.98;;;11.00;;
6852;SDS011;3465;42.144;24.722;2024-01-11T05:05:51;24.23;;;11.20;;
6852;SDS011;3465;42.144;24.722;2024-01-11T05:08:17;17.13;;;9.23;;
6852;SDS011;3465;42.144;24.722;2024-01-11T05:10:42;18.05;;;10.00;;
6852;SDS011;3465;42.144;24.722;2024-01-11T05:13:08;18.92;;;11.35;;
6852;SDS011;3465;42.144;24.722;2024-01-11T05:15:34;19.50;;;12.40;;
6852;SDS011;3465;42.144;24.722;2024-01-11T05:18:00;23.88;;;11.50;;
6852;SDS011;3465;42.144;24.722;2024-01-11T05:20:25;20.13;;;10.48;;
6852;SDS011;3465;42.144;24.722;2024-01-11T05:22:51;20.42;;;12.57;;
6852;SDS011;3465;42.144;24.722;2024-01-11T05:25:16;20.00;;;11.30;;
6852;SDS011;3465;42.144;24.722;2024-01-11T05:27:42;18.25;;;10.20;;
6852;SDS011;3465;42.144;24.722;2024-01-11T05:30:07;18.67;;;8.77;;
6852;SDS011;3465;42.144;24.722;2024-01-11T05:32:33;18.98;;;10.43;;
6852;SDS011;3465;42.144;24.722;2024-01-11T05:34:58;17.85;;;9.85;;
6852;SDS011;3465;42.144;24.722;2024-01-11T05:37:24;15.38;;;9.23;;
6852;SDS011;3465;42.144;24.722;2024-01-11T05:39:50;18.45;;;10.30;;
6852;SDS011;3465;42.144;24.722;2024-01-11T05:42:16;15.15;;;8.32;;
6852;SDS011;3465;42.144;24.722;2024-01-11T05:44:41;16.92;;;9.18;;
6852;SDS011;3465;42.144;24.722;2024-01-11T05:47:07;17.33;;;9.05;;
6852;SDS011;3465;42.144;24.722;2024-01-11T05:49:32;17.50;;;9.38;;
6852;SDS011;3465;42.144;24.722;2024-01-11T05:51:57;18.40;;;11.02;;
6852;SDS011;3465;42.144;24.722;2024-01-11T05:54:23;16.50;;;9.18;;
6852;SDS011;3465;42.144;24.722;2024-01-11T05:56:49;20.00;;;10.68;;
6852;SDS011;3465;42.144;24.722;2024-01-11T05:59:17;19.63;;;9.35;;
6852;SDS011;3465;42.144;24.722;2024-01-11T06:01:43;17.17;;;9.32;;
6852;SDS011;3465;42.144;24.722;2024-01-11T06:04:09;16.52;;;9.07;;
6852;SDS011;3465;42.144;24.722;2024-01-11T06:06:34;26.38;;;12.75;;
6852;SDS011;3465;42.144;24.722;2024-01-11T06:09:00;20.02;;;11.13;;
6852;SDS011;3465;42.144;24.722;2024-01-11T06:11:25;22.63;;;10.52;;
6852;SDS011;3465;42.144;24.722;2024-01-11T06:13:51;22.10;;;10.77;;
6852;SDS011;3465;42.144;24.722;2024-01-11T06:16:16;23.90;;;10.70;;
6852;SDS011;3465;42.144;24.722;2024-01-11T06:18:41;21.63;;;10.43;;
6852;SDS011;3465;42.144;24.722;2024-01-11T06:21:07;26.95;;;12.40;;
6852;SDS011;3465;42.144;24.722;2024-01-11T06:23:32;26.55;;;10.38;;
6852;SDS011;3465;42.144;24.722;2024-01-11T06:25:58;29.17;;;10.77;;
6852;SDS011;3465;42.144;24.722;2024-01-11T06:28:24;20.48;;;11.30;;
6852;SDS011;3465;42.144;24.722;2024-01-11T06:30:49;24.98;;;11.65;;
6852;SDS011;3465;42.144;24.722;2024-01-11T06:33:15;21.95;;;9.68;;
6852;SDS011;3465;42.144;24.722;2024-01-11T06:35:40;21.38;;;11.18;;
6852;SDS011;3465;42.144;24.722;2024-01-11T06:38:06;17.60;;;9.73;;
6852;SDS011;3465;42.144;24.722;2024-01-11T06:40:32;24.88;;;12.18;;
6852;SDS011;3465;42.144;24.722;2024-01-11T06:42:58;19.58;;;10.38;;
6852;SDS011;3465;42.144;24.722;2024-01-11T06:45:23;18.35;;;10.10;;
6852;SDS011;3465;42.144;24.722;2024-01-11T06:47:49;22.67;;;11.02;;
6852;SDS011;3465;42.144;24.722;2024-01-11T06:50:14;18.83;;;10.30;;
6852;SDS011;3465;42.144;24.722;2024-01-11T06:52:40;16.92;;;10.25;;
6852;SDS011;3465;42.144;24.722;2024-01-11T06:55:05;20.42;;;9.55;;
6852;SDS011;3465;42.144;24.722;2024-01-11T06:57:31;17.83;;;9.73;;
6852;SDS011;3465;42.144;24.722;2024-01-11T06:59:57;17.33;;;10.80;;
6852;SDS011;3465;42.144;24.722;2024-01-11T07:02:22;20.65;;;10.38;;
6852;SDS011;3465;42.144;24.722;2024-01-11T07:04:48;22.08;;;10.40;;
6852;SDS011;3465;42.144;24.722;2024-01-11T07:07:13;20.20;;;9.80;;
6852;SDS011;3465;42.144;24.722;2024-01-11T07:09:39;14.10;;;8.52;;
6852;SDS011;3465;42.144;24.722;2024-01-11T07:12:05;15.30;;;8.50;;
6852;SDS011;3465;42.144;24.722;2024-01-11T07:14:31;14.77;;;8.23;;
6852;SDS011;3465;42.144;24.722;2024-01-11T07:16:57;20.60;;;8.95;;
6852;SDS011;3465;42.144;24.722;2024-01-11T07:19:22;14.10;;;8.68;;
6852;SDS011;3465;42.144;24.722;2024-01-11T07:21:48;16.48;;;9.07;;
6852;SDS011;3465;42.144;24.722;2024-01-11T07:24:13;14.02;;;8.48;;
6852;SDS011;3465;42.144;24.722;2024-01-11T07:26:39;15.77;;;8.63;;
6852;SDS011;3465;42.144;24.722;2024-01-11T07:29:05;15.77;;;8.10;;
6852;SDS011;3465;42.144;24.722;2024-01-11T07:31:30;14.48;;;8.05;;
6852;SDS011;3465;42.144;24.722;2024-01-11T07:33:56;9.45;;;5.70;;
6852;SDS011;3465;42.144;24.722;2024-01-11T07:36:21;13.00;;;6.50;;
6852;SDS011;3465;42.144;24.722;2024-01-11T07:41:12;12.40;;;6.72;;
6852;SDS011;3465;42.144;24.722;2024-01-11T07:43:39;9.55;;;6.20;;
6852;SDS011;3465;42.144;24.722;2024-01-11T07:46:05;11.30;;;6.63;;
6852;SDS011;3465;42.144;24.722;2024-01-11T07:48:32;10.18;;;6.45;;
6852;SDS011;3465;42.144;24.722;2024-01-11T07:50:58;9.25;;;6.20;;
6852;SDS011;3465;42.144;24.722;2024-01-11T07:53:24;11.88;;;6.72;;
6852;SDS011;3465;42.144;24.722;2024-01-11T07:55:51;10.35;;;6.50;;
6852;SDS011;3465;42.144;24.722;2024-01-11T08:00:42;13.18;;;7.70;;
6852;SDS011;3465;42.144;24.722;2024-01-11T08:03:07;13.45;;;6.75;;
6852;SDS011;3465;42.144;24.722;2024-01-11T08:05:33;12.35;;;6.60;;
6852;SDS011;3465;42.144;24.722;2024-01-11T08:07:59;14.85;;;6.88;;
6852;SDS011;3465;42.144;24.722;2024-01-11T08:10:27;10.75;;;7.45;;
6852;SDS011;3465;42.144;24.722;2024-01-11T08:15:18;12.07;;;9.20;;
6852;SDS011;3465;42.144;24.722;2024-01-11T08:20:11;16.50;;;7.95;;
6852;SDS011;3465;42.144;24.722;2024-01-11T08:25:10;11.70;;;7.43;;
6852;SDS011;3465;42.144;24.722;2024-01-11T08:30:01;11.27;;;7.60;;
6852;SDS011;3465;42.144;24.722;2024-01-11T08:32:27;15.07;;;8.98;;
6852;SDS011;3465;42.144;24.722;2024-01-11T08:34:53;12.98;;;8.52;;
6852;SDS011;3465;42.144;24.722;2024-01-11T08:37:19;16.10;;;8.57;;
6852;SDS011;3465;42.144;24.722;2024-01-11T08:39:45;14.20;;;8.88;;
6852;SDS011;3465;42.144;24.722;2024-01-11T08:42:11;14.95;;;8.93;;
6852;SDS011;3465;42.144;24.722;2024-01-11T08:44:40;16.13;;;9.15;;
6852;SDS011;3465;42.144;24.722;2024-01-11T08:47:06;18.27;;;9.60;;
6852;SDS011;3465;42.144;24.722;2024-01-11T08:49:32;18.42;;;10.13;;
6852;SDS011;3465;42.144;24.722;2024-01-11T08:51:57;16.77;;;9.63;;
6852;SDS011;3465;42.144;24.722;2024-01-11T08:54:23;15.65;;;7.70;;
6852;SDS011;3465;42.144;24.722;2024-01-11T08:56:48;14.43;;;8.07;;
6852;SDS011;3465;42.144;24.722;2024-01-11T08:59:14;13.90;;;7.85;;
6852;SDS011;3465;42.144;24.722;2024-01-11T09:01:39;12.05;;;7.68;;
6852;SDS011;3465;42.144;24.722;2024-01-11T09:04:05;17.13;;;8.30;;
6852;SDS011;3465;42.144;24.722;2024-01-11T09:06:30;11.63;;;7.32;;
6852;SDS011;3465;42.144;24.722;2024-01-11T09:08:57;12.20;;;6.70;;
6852;SDS011;3465;42.144;24.722;2024-01-11T09:11:22;13.80;;;9.45;;
6852;SDS011;3465;42.144;24.722;2024-01-11T09:13:48;12.38;;;6.80;;
6852;SDS011;3465;42.144;24.722;2024-01-11T09:16:14;14.30;;;7.57;;
6852;SDS011;3465;42.144;24.722;2024-01-11T09:18:40;15.82;;;9.75;;
6852;SDS011;3465;42.144;24.722;2024-01-11T09:21:06;12.02;;;6.53;;
6852;SDS011;3465;42.144;24.722;2024-01-11T09:23:32;13.27;;;9.10;;
6852;SDS011;3465;42.144;24.722;2024-01-11T09:25:59;16.35;;;7.70;;
6852;SDS011;3465;42.144;24.722;2024-01-11T09:28:24;13.75;;;8.52;;
6852;SDS011;3465;42.144;24.722;2024-01-11T09:30:50;12.05;;;6.72;;
6852;SDS011;3465;42.144;24.722;2024-01-11T09:33:15;13.55;;;8.40;;
6852;SDS011;3465;42.144;24.722;2024-01-11T09:35:41;13.93;;;7.18;;
6852;SDS011;3465;42.144;24.722;2024-01-11T09:38:06;14.25;;;7.90;;
6852;SDS011;3465;42.144;24.722;2024-01-11T09:40:32;11.38;;;7.57;;
6852;SDS011;3465;42.144;24.722;2024-01-11T09:42:58;20.25;;;8.93;;
6852;SDS011;3465;42.144;24.722;2024-01-11T09:45:23;12.65;;;8.00;;
6852;SDS011;3465;42.144;24.722;2024-01-11T09:47:50;12.95;;;6.80;;
6852;SDS011;3465;42.144;24.722;2024-01-11T09:50:17;13.20;;;5.78;;
6852;SDS011;3465;42.144;24.722;2024-01-11T09:52:46;11.27;;;6.45;;
6852;SDS011;3465;42.144;24.722;2024-01-11T09:55:18;14.32;;;6.88;;
6852;SDS011;3465;42.144;24.722;2024-01-11T09:57:45;12.23;;;8.88;;
6852;SDS011;3465;42.144;24.722;2024-01-11T10:00:13;12.45;;;6.70;;
6852;SDS011;3465;42.144;24.722;2024-01-11T10:02:41;13.88;;;5.55;;
6852;SDS011;3465;42.144;24.722;2024-01-11T10:05:07;12.05;;;6.63;;
6852;SDS011;3465;42.144;24.722;2024-01-11T10:07:32;11.07;;;6.25;;
6852;SDS011;3465;42.144;24.722;2024-01-11T10:09:59;15.20;;;6.13;;
6852;SDS011;3465;42.144;24.722;2024-01-11T10:12:26;11.18;;;7.80;;
6852;SDS011;3465;42.144;24.722;2024-01-11T10:14:52;18.95;;;7.13;;
6852;SDS011;3465;42.144;24.722;2024-01-11T10:17:18;12.63;;;6.75;;
6852;SDS011;3465;42.144;24.722;2024-01-11T10:19:44;12.63;;;6.50;;
6852;SDS011;3465;42.144;24.722;2024-01-11T10:22:10;12.75;;;6.65;;
6852;SDS011;3465;42.144;24.722;2024-01-11T10:24:40;12.57;;;8.35;;
6852;SDS011;3465;42.144;24.722;2024-01-11T10:27:08;10.73;;;6.57;;
6852;SDS011;3465;42.144;24.722;2024-01-11T10:32:57;11.60;;;6.50;;
6852;SDS011;3465;42.144;24.722;2024-01-11T10:38:44;11.52;;;8.90;;
6852;SDS011;3465;42.144;24.722;2024-01-11T10:41:12;18.05;;;8.25;;
6852;SDS011;3465;42.144;24.722;2024-01-11T10:43:42;13.35;;;8.13;;
6852;SDS011;3465;42.144;24.722;2024-01-11T10:46:08;12.10;;;7.43;;
6852;SDS011;3465;42.144;24.722;2024-01-11T10:48:38;10.73;;;5.53;;
6852;SDS011;3465;42.144;24.722;2024-01-11T10:51:10;12.02;;;7.22;;
6852;SDS011;3465;42.144;24.722;2024-01-11T10:53:44;12.40;;;7.18;;
6852;SDS011;3465;42.144;24.722;2024-01-11T10:56:11;10.10;;;6.05;;
6852;SDS011;3465;42.144;24.722;2024-01-11T10:58:37;12.55;;;6.40;;
6852;SDS011;3465;42.144;24.722;2024-01-11T11:01:05;13.27;;;6.15;;
6852;SDS011;3465;42.144;24.722;2024-01-11T11:03:31;8.52;;;5.65;;
6852;SDS011;3465;42.144;24.722;2024-01-11T11:05:59;10.48;;;5.65;;
6852;SDS011;3465;42.144;24.722;2024-01-11T11:08:25;12.85;;;6.25;;
6852;SDS011;3465;42.144;24.722;2024-01-11T11:13:22;9.00;;;5.53;;
6852;SDS011;3465;42.144;24.722;2024-01-11T11:15:48;9.18;;;5.57;;
6852;SDS011;3465;42.144;24.722;2024-01-11T11:18:14;12.88;;;6.72;;
6852;SDS011;3465;42.144;24.722;2024-01-11T11:20:41;10.20;;;5.68;;
6852;SDS011;3465;42.144;24.722;2024-01-11T11:23:10;8.57;;;4.85;;
6852;SDS011;3465;42.144;24.722;2024-01-11T11:25:41;10.38;;;5.97;;
6852;SDS011;3465;42.144;24.722;2024-01-11T11:28:07;22.15;;;10.05;;
6852;SDS011;3465;42.144;24.722;2024-01-11T11:30:33;25.48;;;8.55;;
6852;SDS011;3465;42.144;24.722;2024-01-11T11:33:17;10.35;;;4.85;;
6852;SDS011;3465;42.144;24.722;2024-01-11T11:35:48;11.35;;;4.97;;
6852;SDS011;3465;42.144;24.722;2024-01-11T11:38:17;10.85;;;6.25;;
6852;SDS011;3465;42.144;24.722;2024-01-11T11:40:43;8.45;;;5.13;;
6852;SDS011;3465;42.144;24.722;2024-01-11T11:43:12;8.18;;;4.30;;
6852;SDS011;3465;42.144;24.722;2024-01-11T11:45:39;11.88;;;4.35;;
6852;SDS011;3465;42.144;24.722;2024-01-11T11:51:37;6.78;;;4.57;;
6852;SDS011;3465;42.144;24.722;2024-01-11T11:53:57;11.02;;;4.70;;
6852;SDS011;3465;42.144;24.722;2024-01-11T11:56:23;9.30;;;4.18;;
6852;SDS011;3465;42.144;24.722;2024-01-11T12:01:17;9.65;;;3.72;;
6852;SDS011;3465;42.144;24.722;2024-01-11T12:06:21;7.07;;;4.47;;
6852;SDS011;3465;42.144;24.722;2024-01-11T12:08:52;9.40;;;4.68;;
6852;SDS011;3465;42.144;24.722;2024-01-11T12:11:19;8.32;;;4.60;;
6852;SDS011;3465;42.144;24.722;2024-01-11T12:13:46;9.85;;;4.28;;
6852;SDS011;3465;42.144;24.722;2024-01-11T12:16:13;7.22;;;4.32;;
6852;SDS011;3465;42.144;24.722;2024-01-11T12:18:39;7.03;;;4.07;;
6852;SDS011;3465;42.144;24.722;2024-01-11T12:21:05;7.95;;;5.03;;
6852;SDS011;3465;42.144;24.722;2024-01-11T12:23:31;10.35;;;4.20;;
6852;SDS011;3465;42.144;24.722;2024-01-11T12:26:00;5.38;;;4.60;;
6852;SDS011;3465;42.144;24.722;2024-01-11T12:28:27;9.70;;;4.95;;
6852;SDS011;3465;42.144;24.722;2024-01-11T12:30:52;11.60;;;4.30;;
6852;SDS011;3465;42.144;24.722;2024-01-11T12:33:18;11.82;;;4.85;;
6852;SDS011;3465;42.144;24.722;2024-01-11T12:38:10;6.57;;;3.95;;
6852;SDS011;3465;42.144;24.722;2024-01-11T12:40:36;11.20;;;4.90;;
6852;SDS011;3465;42.144;24.722;2024-01-11T12:43:02;8.35;;;4.20;;
6852;SDS011;3465;42.144;24.722;2024-01-11T12:47:54;7.30;;;3.97;;
6852;SDS011;3465;42.144;24.722;2024-01-11T12:50:25;6.70;;;5.05;;
6852;SDS011;3465;42.144;24.722;2024-01-11T12:55:43;7.90;;;4.47;;
6852;SDS011;3465;42.144;24.722;2024-01-11T12:58:26;7.70;;;4.60;;
6852;SDS011;3465;42.144;24.722;2024-01-11T13:00:52;6.82;;;4.95;;
6852;SDS011;3465;42.144;24.722;2024-01-11T13:05:45;6.90;;;4.90;;
6852;SDS011;3465;42.144;24.722;2024-01-11T13:10:36;7.35;;;4.40;;
6852;SDS011;3465;42.144;24.722;2024-01-11T13:13:03;7.38;;;4.70;;
6852;SDS011;3465;42.144;24.722;2024-01-11T13:15:30;8.93;;;4.68;;
6852;SDS011;3465;42.144;24.722;2024-01-11T13:17:56;7.85;;;4.72;;
6852;SDS011;3465;42.144;24.722;2024-01-11T13:20:22;7.43;;;4.70;;
6852;SDS011;3465;42.144;24.722;2024-01-11T13:22:49;11.07;;;7.32;;
6852;SDS011;3465;42.144;24.722;2024-01-11T13:25:19;7.85;;;4.95;;
6852;SDS011;3465;42.144;24.722;2024-01-11T13:27:44;6.88;;;4.15;;
6852;SDS011;3465;42.144;24.722;2024-01-11T13:30:10;7.50;;;4.88;;
6852;SDS011;3465;42.144;24.722;2024-01-11T13:32:36;11.43;;;5.50;;
6852;SDS011;3465;42.144;24.722;2024-01-11T13:35:01;9.00;;;5.32;;
6852;SDS011;3465;42.144;24.722;2024-01-11T13:37:28;9.70;;;4.43;;
6852;SDS011;3465;42.144;24.722;2024-01-11T13:39:54;8.93;;;5.25;;
6852;SDS011;3465;42.144;24.722;2024-01-11T13:42:20;7.97;;;5.18;;
6852;SDS011;3465;42.144;24.722;2024-01-11T13:44:46;9.88;;;4.95;;
6852;SDS011;3465;42.144;24.722;2024-01-11T13:47:11;11.55;;;5.25;;
6852;SDS011;3465;42.144;24.722;2024-01-11T13:49:38;10.20;;;4.65;;
6852;SDS011;3465;42.144;24.722;2024-01-11T13:52:03;9.13;;;4.50;;
6852;SDS011;3465;42.144;24.722;2024-01-11T13:56:55;10.25;;;4.75;;
6852;SDS011;3465;42.144;24.722;2024-01-11T13:59:20;10.27;;;4.75;;
6852;SDS011;3465;42.144;24.722;2024-01-11T14:01:46;9.25;;;5.85;;
6852;SDS011;3465;42.144;24.722;2024-01-11T14:04:11;10.52;;;5.38;;
6852;SDS011;3465;42.144;24.722;2024-01-11T14:06:37;12.50;;;5.57;;
6852;SDS011;3465;42.144;24.722;2024-01-11T14:09:02;10.40;;;5.53;;
6852;SDS011;3465;42.144;24.722;2024-01-11T14:11:29;10.85;;;5.65;;
6852;SDS011;3465;42.144;24.722;2024-01-11T14:13:55;10.43;;;7.00;;
6852;SDS011;3465;42.144;24.722;2024-01-11T14:16:21;8.57;;;5.05;;
6852;SDS011;3465;42.144;24.722;2024-01-11T14:18:48;11.15;;;7.35;;
6852;SDS011;3465;42.144;24.722;2024-01-11T14:21:14;13.30;;;7.95;;
6852;SDS011;3465;42.144;24.722;2024-01-11T14:23:39;15.80;;;7.25;;
6852;SDS011;3465;42.144;24.722;2024-01-11T14:26:05;14.15;;;7.97;;
6852;SDS011;3465;42.144;24.722;2024-01-11T14:28:31;8.85;;;5.18;;
6852;SDS011;3465;42.144;24.722;2024-01-11T14:30:56;13.38;;;6.70;;
6852;SDS011;3465;42.144;24.722;2024-01-11T14:33:22;26.95;;;21.75;;
6852;SDS011;3465;42.144;24.722;2024-01-11T14:35:47;15.25;;;7.75;;
6852;SDS011;3465;42.144;24.722;2024-01-11T14:38:13;35.72;;;19.27;;
6852;SDS011;3465;42.144;24.722;2024-01-11T14:40:38;17.23;;;8.57;;
6852;SDS011;3465;42.144;24.722;2024-01-11T14:43:03;17.70;;;8.45;;
6852;SDS011;3465;42.144;24.722;2024-01-11T14:45:29;21.48;;;8.77;;
6852;SDS011;3465;42.144;24.722;2024-01-11T14:47:55;15.85;;;7.80;;
6852;SDS011;3465;42.144;24.722;2024-01-11T14:50:20;17.92;;;8.43;;
6852;SDS011;3465;42.144;24.722;2024-01-11T14:52:46;22.85;;;9.07;;
6852;SDS011;3465;42.144;24.722;2024-01-11T14:55:12;19.73;;;8.95;;
6852;SDS011;3465;42.144;24.722;2024-01-11T14:57:39;14.23;;;7.53;;
6852;SDS011;3465;42.144;24.722;2024-01-11T15:00:04;16.27;;;10.75;;
6852;SDS011;3465;42.144;24.722;2024-01-11T15:02:32;21.13;;;8.85;;
6852;SDS011;3465;42.144;24.722;2024-01-11T15:04:58;20.58;;;9.25;;
6852;SDS011;3465;42.144;24.722;2024-01-11T15:07:25;18.42;;;9.07;;
6852;SDS011;3465;42.144;24.722;2024-01-11T15:09:50;23.98;;;9.07;;
6852;SDS011;3465;42.144;24.722;2024-01-11T15:12:16;20.40;;;9.40;;
6852;SDS011;3465;42.144;24.722;2024-01-11T15:14:42;19.55;;;9.30;;
6852;SDS011;3465;42.144;24.722;2024-01-11T15:17:07;21.58;;;11.57;;
6852;SDS011;3465;42.144;24.722;2024-01-11T15:19:33;22.23;;;10.15;;
6852;SDS011;3465;42.144;24.722;2024-01-11T15:21:58;21.08;;;9.00;;
6852;SDS011;3465;42.144;24.722;2024-01-11T15:24:24;26.83;;;10.75;;
6852;SDS011;3465;42.144;24.722;2024-01-11T15:26:49;18.42;;;9.07;;
6852;SDS011;3465;42.144;24.722;2024-01-11T15:29:15;50.95;;;27.10;;
6852;SDS011;3465;42.144;24.722;2024-01-11T15:31:41;34.83;;;13.57;;